EmailTwitter


Surface observations / France / LFMP (07747)

Regions: Quebec | Canada | USA | Europe | France | UK | Elsewhere
Station
Display
Info & Location for LFMP (07747) | Help decoding METAR

Weather Conditions observed on 2018/02/24 at 09:30 UTC at PERPIGNAN/RIVESA, FR (LFMP)

Temperature: 7.0 Celsius.

Dewpoint: -3.0 Celsius.

Relative Humidity: 49%

Winds: Northwest at 9 km/h or 5 knots.

Mean Sea level Pressure: 100.80 kilopascals.

Coded METAR:

LFMP 240930Z AUTO 33005KT 280V020 CAVOK 07/M03 Q1008 NOSIG=